sensor_id;sensor_type;location;lat;lon;timestamp;P1;durP1;ratioP1;P2;durP2;ratioP2
26038;SDS011;13815;52.374;4.882;2024-03-23T00:55:40;0.00;;;0.00;;
26038;SDS011;13815;52.374;4.882;2024-03-23T00:58:06;0.00;;;0.00;;
26038;SDS011;13815;52.374;4.882;2024-03-23T01:00:32;0.00;;;0.00;;
26038;SDS011;13815;52.374;4.882;2024-03-23T01:02:57;0.00;;;0.00;;
26038;SDS011;13815;52.374;4.882;2024-03-23T01:05:22;0.00;;;0.00;;
26038;SDS011;13815;52.374;4.882;2024-03-23T01:07:48;0.00;;;0.00;;
26038;SDS011;13815;52.374;4.882;2024-03-23T01:10:13;0.00;;;0.00;;
26038;SDS011;13815;52.374;4.882;2024-03-23T01:12:38;0.00;;;0.00;;
26038;SDS011;13815;52.374;4.882;2024-03-23T01:15:04;0.00;;;0.00;;
26038;SDS011;13815;52.374;4.882;2024-03-23T01:17:30;0.00;;;0.00;;
26038;SDS011;13815;52.374;4.882;2024-03-23T01:19:55;0.00;;;0.00;;
26038;SDS011;13815;52.374;4.882;2024-03-23T01:22:20;0.00;;;0.00;;
26038;SDS011;13815;52.374;4.882;2024-03-23T01:24:46;0.00;;;0.00;;
26038;SDS011;13815;52.374;4.882;2024-03-23T01:27:11;0.00;;;0.00;;
26038;SDS011;13815;52.374;4.882;2024-03-23T01:29:36;0.00;;;0.00;;
26038;SDS011;13815;52.374;4.882;2024-03-23T01:32:02;0.00;;;0.00;;
26038;SDS011;13815;52.374;4.882;2024-03-23T01:34:27;0.00;;;0.00;;
26038;SDS011;13815;52.374;4.882;2024-03-23T01:36:53;0.00;;;0.00;;
26038;SDS011;13815;52.374;4.882;2024-03-23T01:39:18;0.00;;;0.00;;
26038;SDS011;13815;52.374;4.882;2024-03-23T01:41:44;0.00;;;0.00;;
26038;SDS011;13815;52.374;4.882;2024-03-23T01:44:09;0.00;;;0.00;;
26038;SDS011;13815;52.374;4.882;2024-03-23T01:46:35;0.00;;;0.00;;
26038;SDS011;13815;52.374;4.882;2024-03-23T01:49:02;0.00;;;0.00;;
26038;SDS011;13815;52.374;4.882;2024-03-23T01:51:28;0.00;;;0.00;;
26038;SDS011;13815;52.374;4.882;2024-03-23T01:53:54;0.00;;;0.00;;
26038;SDS011;13815;52.374;4.882;2024-03-23T01:56:20;0.00;;;0.00;;
26038;SDS011;13815;52.374;4.882;2024-03-23T01:58:45;0.10;;;0.10;;
26038;SDS011;13815;52.374;4.882;2024-03-23T02:01:11;0.10;;;0.10;;
26038;SDS011;13815;52.374;4.882;2024-03-23T02:03:36;0.10;;;0.10;;
26038;SDS011;13815;52.374;4.882;2024-03-23T02:06:02;0.10;;;0.10;;
26038;SDS011;13815;52.374;4.882;2024-03-23T02:08:28;0.20;;;0.20;;
26038;SDS011;13815;52.374;4.882;2024-03-23T02:10:55;0.20;;;0.20;;
26038;SDS011;13815;52.374;4.882;2024-03-23T02:13:21;0.20;;;0.20;;
26038;SDS011;13815;52.374;4.882;2024-03-23T02:15:46;0.30;;;0.30;;
26038;SDS011;13815;52.374;4.882;2024-03-23T02:18:12;0.30;;;0.30;;
26038;SDS011;13815;52.374;4.882;2024-03-23T02:20:38;0.40;;;0.40;;
26038;SDS011;13815;52.374;4.882;2024-03-23T02:23:04;0.50;;;0.50;;
26038;SDS011;13815;52.374;4.882;2024-03-23T02:25:33;0.50;;;0.50;;
26038;SDS011;13815;52.374;4.882;2024-03-23T02:27:59;0.50;;;0.50;;
26038;SDS011;13815;52.374;4.882;2024-03-23T02:30:25;0.50;;;0.50;;
26038;SDS011;13815;52.374;4.882;2024-03-23T02:32:51;0.70;;;0.70;;
26038;SDS011;13815;52.374;4.882;2024-03-23T02:35:16;0.70;;;0.70;;
26038;SDS011;13815;52.374;4.882;2024-03-23T02:37:41;0.80;;;0.80;;
26038;SDS011;13815;52.374;4.882;2024-03-23T02:40:07;0.85;;;0.85;;
26038;SDS011;13815;52.374;4.882;2024-03-23T02:42:32;0.90;;;0.90;;
26038;SDS011;13815;52.374;4.882;2024-03-23T02:45:00;0.90;;;0.90;;
26038;SDS011;13815;52.374;4.882;2024-03-23T02:47:26;1.02;;;1.02;;
26038;SDS011;13815;52.374;4.882;2024-03-23T02:49:51;1.00;;;1.00;;
26038;SDS011;13815;52.374;4.882;2024-03-23T02:52:16;1.10;;;1.10;;
26038;SDS011;13815;52.374;4.882;2024-03-23T02:54:42;1.15;;;1.15;;
26038;SDS011;13815;52.374;4.882;2024-03-23T02:57:09;1.00;;;1.00;;
26038;SDS011;13815;52.374;4.882;2024-03-23T02:59:35;1.10;;;1.10;;
26038;SDS011;13815;52.374;4.882;2024-03-23T03:02:01;1.10;;;1.10;;
26038;SDS011;13815;52.374;4.882;2024-03-23T03:04:26;1.13;;;1.13;;
26038;SDS011;13815;52.374;4.882;2024-03-23T03:06:51;1.10;;;1.10;;
26038;SDS011;13815;52.374;4.882;2024-03-23T03:09:17;0.93;;;0.93;;
26038;SDS011;13815;52.374;4.882;2024-03-23T03:11:42;1.00;;;1.00;;
26038;SDS011;13815;52.374;4.882;2024-03-23T03:14:07;0.85;;;0.85;;
26038;SDS011;13815;52.374;4.882;2024-03-23T03:16:33;1.00;;;1.00;;
26038;SDS011;13815;52.374;4.882;2024-03-23T03:18:58;1.00;;;1.00;;
26038;SDS011;13815;52.374;4.882;2024-03-23T03:21:24;1.00;;;1.00;;
26038;SDS011;13815;52.374;4.882;2024-03-23T03:23:49;1.00;;;1.00;;
26038;SDS011;13815;52.374;4.882;2024-03-23T03:26:17;1.10;;;1.10;;
26038;SDS011;13815;52.374;4.882;2024-03-23T03:28:43;1.10;;;1.10;;
26038;SDS011;13815;52.374;4.882;2024-03-23T03:31:10;1.00;;;1.00;;
26038;SDS011;13815;52.374;4.882;2024-03-23T03:33:35;1.10;;;1.10;;
26038;SDS011;13815;52.374;4.882;2024-03-23T03:36:00;1.00;;;1.00;;
26038;SDS011;13815;52.374;4.882;2024-03-23T03:38:26;1.00;;;1.00;;
26038;SDS011;13815;52.374;4.882;2024-03-23T03:40:51;1.00;;;1.00;;
26038;SDS011;13815;52.374;4.882;2024-03-23T03:43:17;0.90;;;0.90;;
26038;SDS011;13815;52.374;4.882;2024-03-23T03:45:43;0.90;;;0.90;;
26038;SDS011;13815;52.374;4.882;2024-03-23T03:48:16;0.90;;;0.90;;
26038;SDS011;13815;52.374;4.882;2024-03-23T03:50:42;0.75;;;0.75;;
26038;SDS011;13815;52.374;4.882;2024-03-23T03:53:07;0.90;;;0.90;;
26038;SDS011;13815;52.374;4.882;2024-03-23T03:55:32;0.80;;;0.80;;
26038;SDS011;13815;52.374;4.882;2024-03-23T03:57:58;0.80;;;0.80;;
26038;SDS011;13815;52.374;4.882;2024-03-23T04:00:23;0.80;;;0.80;;
26038;SDS011;13815;52.374;4.882;2024-03-23T04:02:48;0.70;;;0.70;;
26038;SDS011;13815;52.374;4.882;2024-03-23T04:05:14;0.60;;;0.60;;
26038;SDS011;13815;52.374;4.882;2024-03-23T04:07:39;0.50;;;0.50;;
26038;SDS011;13815;52.374;4.882;2024-03-23T04:10:05;0.60;;;0.60;;
26038;SDS011;13815;52.374;4.882;2024-03-23T04:12:32;0.50;;;0.50;;
26038;SDS011;13815;52.374;4.882;2024-03-23T04:14:58;0.40;;;0.40;;
26038;SDS011;13815;52.374;4.882;2024-03-23T04:17:23;0.43;;;0.43;;
26038;SDS011;13815;52.374;4.882;2024-03-23T04:19:50;0.40;;;0.40;;
26038;SDS011;13815;52.374;4.882;2024-03-23T04:22:17;0.40;;;0.40;;
26038;SDS011;13815;52.374;4.882;2024-03-23T04:24:42;0.40;;;0.40;;
26038;SDS011;13815;52.374;4.882;2024-03-23T04:27:08;0.30;;;0.30;;
26038;SDS011;13815;52.374;4.882;2024-03-23T04:29:33;0.40;;;0.40;;
26038;SDS011;13815;52.374;4.882;2024-03-23T04:31:59;0.30;;;0.30;;
26038;SDS011;13815;52.374;4.882;2024-03-23T04:34:24;0.40;;;0.40;;
26038;SDS011;13815;52.374;4.882;2024-03-23T04:36:49;0.40;;;0.40;;
26038;SDS011;13815;52.374;4.882;2024-03-23T04:39:15;0.40;;;0.40;;
26038;SDS011;13815;52.374;4.882;2024-03-23T04:41:40;0.40;;;0.40;;
26038;SDS011;13815;52.374;4.882;2024-03-23T04:44:06;0.40;;;0.40;;
26038;SDS011;13815;52.374;4.882;2024-03-23T04:46:31;0.50;;;0.50;;
26038;SDS011;13815;52.374;4.882;2024-03-23T04:48:56;0.40;;;0.40;;
26038;SDS011;13815;52.374;4.882;2024-03-23T04:51:22;0.50;;;0.50;;
26038;SDS011;13815;52.374;4.882;2024-03-23T04:53:48;0.47;;;0.47;;
26038;SDS011;13815;52.374;4.882;2024-03-23T04:56:14;0.50;;;0.50;;
26038;SDS011;13815;52.374;4.882;2024-03-23T04:58:40;0.45;;;0.45;;
26038;SDS011;13815;52.374;4.882;2024-03-23T05:01:05;0.47;;;0.47;;
26038;SDS011;13815;52.374;4.882;2024-03-23T05:03:30;0.50;;;0.50;;
26038;SDS011;13815;52.374;4.882;2024-03-23T05:05:56;0.50;;;0.50;;
26038;SDS011;13815;52.374;4.882;2024-03-23T05:08:21;0.50;;;0.50;;
26038;SDS011;13815;52.374;4.882;2024-03-23T05:10:46;0.40;;;0.40;;
26038;SDS011;13815;52.374;4.882;2024-03-23T05:13:12;0.50;;;0.50;;
26038;SDS011;13815;52.374;4.882;2024-03-23T05:15:37;0.50;;;0.50;;
26038;SDS011;13815;52.374;4.882;2024-03-23T05:18:03;0.50;;;0.50;;
26038;SDS011;13815;52.374;4.882;2024-03-23T05:20:30;0.52;;;0.52;;
26038;SDS011;13815;52.374;4.882;2024-03-23T05:22:55;0.50;;;0.50;;
26038;SDS011;13815;52.374;4.882;2024-03-23T05:25:21;0.40;;;0.40;;
26038;SDS011;13815;52.374;4.882;2024-03-23T05:27:46;0.60;;;0.60;;
26038;SDS011;13815;52.374;4.882;2024-03-23T05:30:12;0.50;;;0.50;;
26038;SDS011;13815;52.374;4.882;2024-03-23T05:32:37;0.40;;;0.40;;
26038;SDS011;13815;52.374;4.882;2024-03-23T05:35:05;0.40;;;0.40;;
26038;SDS011;13815;52.374;4.882;2024-03-23T05:37:34;0.40;;;0.40;;
26038;SDS011;13815;52.374;4.882;2024-03-23T05:39:59;0.40;;;0.40;;
26038;SDS011;13815;52.374;4.882;2024-03-23T05:42:25;0.40;;;0.40;;
26038;SDS011;13815;52.374;4.882;2024-03-23T05:44:50;0.50;;;0.50;;
26038;SDS011;13815;52.374;4.882;2024-03-23T05:47:15;0.50;;;0.50;;
26038;SDS011;13815;52.374;4.882;2024-03-23T05:49:41;0.50;;;0.50;;
26038;SDS011;13815;52.374;4.882;2024-03-23T05:52:10;0.40;;;0.40;;
26038;SDS011;13815;52.374;4.882;2024-03-23T05:54:35;0.57;;;0.57;;
26038;SDS011;13815;52.374;4.882;2024-03-23T05:57:01;0.50;;;0.50;;
26038;SDS011;13815;52.374;4.882;2024-03-23T05:59:27;0.60;;;0.60;;
26038;SDS011;13815;52.374;4.882;2024-03-23T06:01:52;0.50;;;0.50;;
26038;SDS011;13815;52.374;4.882;2024-03-23T06:04:18;0.50;;;0.50;;
26038;SDS011;13815;52.374;4.882;2024-03-23T06:06:43;0.50;;;0.50;;
26038;SDS011;13815;52.374;4.882;2024-03-23T06:09:09;0.50;;;0.50;;
26038;SDS011;13815;52.374;4.882;2024-03-23T06:11:34;0.50;;;0.50;;
26038;SDS011;13815;52.374;4.882;2024-03-23T06:14:00;0.40;;;0.40;;
26038;SDS011;13815;52.374;4.882;2024-03-23T06:16:25;0.40;;;0.40;;
26038;SDS011;13815;52.374;4.882;2024-03-23T06:18:52;0.40;;;0.40;;
26038;SDS011;13815;52.374;4.882;2024-03-23T06:21:17;0.40;;;0.40;;
26038;SDS011;13815;52.374;4.882;2024-03-23T06:23:43;0.40;;;0.40;;
26038;SDS011;13815;52.374;4.882;2024-03-23T06:26:13;0.40;;;0.40;;
26038;SDS011;13815;52.374;4.882;2024-03-23T06:28:38;0.40;;;0.40;;
26038;SDS011;13815;52.374;4.882;2024-03-23T06:31:08;0.30;;;0.30;;
26038;SDS011;13815;52.374;4.882;2024-03-23T06:33:35;0.40;;;0.40;;
26038;SDS011;13815;52.374;4.882;2024-03-23T06:36:01;0.40;;;0.40;;
26038;SDS011;13815;52.374;4.882;2024-03-23T06:38:28;0.32;;;0.32;;
26038;SDS011;13815;52.374;4.882;2024-03-23T06:40:53;0.30;;;0.30;;
26038;SDS011;13815;52.374;4.882;2024-03-23T06:43:19;0.30;;;0.30;;
26038;SDS011;13815;52.374;4.882;2024-03-23T06:45:44;0.20;;;0.20;;
26038;SDS011;13815;52.374;4.882;2024-03-23T06:48:17;0.30;;;0.30;;
26038;SDS011;13815;52.374;4.882;2024-03-23T06:50:43;0.30;;;0.30;;
26038;SDS011;13815;52.374;4.882;2024-03-23T06:53:11;0.30;;;0.30;;
26038;SDS011;13815;52.374;4.882;2024-03-23T06:55:37;0.30;;;0.30;;
26038;SDS011;13815;52.374;4.882;2024-03-23T06:58:02;0.30;;;0.30;;
26038;SDS011;13815;52.374;4.882;2024-03-23T07:00:28;0.30;;;0.30;;
26038;SDS011;13815;52.374;4.882;2024-03-23T07:02:53;0.30;;;0.30;;
26038;SDS011;13815;52.374;4.882;2024-03-23T07:05:18;0.30;;;0.30;;
26038;SDS011;13815;52.374;4.882;2024-03-23T07:07:44;0.30;;;0.30;;
26038;SDS011;13815;52.374;4.882;2024-03-23T07:10:12;0.30;;;0.30;;
26038;SDS011;13815;52.374;4.882;2024-03-23T07:12:37;0.40;;;0.40;;
26038;SDS011;13815;52.374;4.882;2024-03-23T07:15:03;0.40;;;0.40;;
26038;SDS011;13815;52.374;4.882;2024-03-23T07:17:29;0.40;;;0.40;;
26038;SDS011;13815;52.374;4.882;2024-03-23T07:19:54;0.30;;;0.30;;
26038;SDS011;13815;52.374;4.882;2024-03-23T07:22:20;0.40;;;0.40;;
26038;SDS011;13815;52.374;4.882;2024-03-23T07:24:45;0.30;;;0.30;;
26038;SDS011;13815;52.374;4.882;2024-03-23T07:27:10;0.47;;;0.47;;
26038;SDS011;13815;52.374;4.882;2024-03-23T07:29:36;0.50;;;0.50;;
26038;SDS011;13815;52.374;4.882;2024-03-23T07:32:01;0.60;;;0.60;;
26038;SDS011;13815;52.374;4.882;2024-03-23T07:34:27;0.70;;;0.70;;
26038;SDS011;13815;52.374;4.882;2024-03-23T07:36:54;0.70;;;0.70;;
26038;SDS011;13815;52.374;4.882;2024-03-23T07:39:19;0.77;;;0.77;;
26038;SDS011;13815;52.374;4.882;2024-03-23T07:41:45;1.10;;;1.10;;
26038;SDS011;13815;52.374;4.882;2024-03-23T07:44:10;1.40;;;1.40;;
26038;SDS011;13815;52.374;4.882;2024-03-23T07:46:36;1.38;;;1.38;;
26038;SDS011;13815;52.374;4.882;2024-03-23T07:49:01;1.50;;;1.50;;
26038;SDS011;13815;52.374;4.882;2024-03-23T07:51:29;1.38;;;1.38;;
26038;SDS011;13815;52.374;4.882;2024-03-23T07:53:54;1.80;;;1.80;;
26038;SDS011;13815;52.374;4.882;2024-03-23T07:56:19;2.38;;;2.38;;
26038;SDS011;13815;52.374;4.882;2024-03-23T07:58:46;2.90;;;2.90;;
26038;SDS011;13815;52.374;4.882;2024-03-23T08:01:13;2.30;;;2.30;;
26038;SDS011;13815;52.374;4.882;2024-03-23T08:03:40;2.15;;;2.15;;
26038;SDS011;13815;52.374;4.882;2024-03-23T08:08:35;3.28;;;3.17;;
26038;SDS011;13815;52.374;4.882;2024-03-23T08:11:00;2.30;;;2.30;;
26038;SDS011;13815;52.374;4.882;2024-03-23T08:13:25;3.70;;;3.60;;
26038;SDS011;13815;52.374;4.882;2024-03-23T08:15:51;3.83;;;3.72;;
26038;SDS011;13815;52.374;4.882;2024-03-23T08:18:16;4.40;;;4.30;;
26038;SDS011;13815;52.374;4.882;2024-03-23T08:20:42;5.60;;;5.50;;
26038;SDS011;13815;52.374;4.882;2024-03-23T08:23:07;6.30;;;6.10;;
26038;SDS011;13815;52.374;4.882;2024-03-23T08:25:33;5.95;;;5.75;;
26038;SDS011;13815;52.374;4.882;2024-03-23T08:27:59;5.10;;;5.00;;
26038;SDS011;13815;52.374;4.882;2024-03-23T08:30:24;5.70;;;5.60;;
26038;SDS011;13815;52.374;4.882;2024-03-23T08:32:50;5.10;;;5.00;;
26038;SDS011;13815;52.374;4.882;2024-03-23T08:35:15;3.60;;;3.50;;
26038;SDS011;13815;52.374;4.882;2024-03-23T08:37:41;5.57;;;5.47;;
26038;SDS011;13815;52.374;4.882;2024-03-23T08:40:06;5.57;;;5.47;;
26038;SDS011;13815;52.374;4.882;2024-03-23T08:42:33;6.57;;;6.38;;
26038;SDS011;13815;52.374;4.882;2024-03-23T08:44:59;7.43;;;7.22;;
26038;SDS011;13815;52.374;4.882;2024-03-23T08:47:24;6.40;;;6.20;;
26038;SDS011;13815;52.374;4.882;2024-03-23T08:49:50;8.32;;;8.02;;
26038;SDS011;13815;52.374;4.882;2024-03-23T08:52:15;8.35;;;8.05;;
26038;SDS011;13815;52.374;4.882;2024-03-23T08:54:41;10.02;;;9.63;;
26038;SDS011;13815;52.374;4.882;2024-03-23T08:57:06;12.00;;;11.48;;
26038;SDS011;13815;52.374;4.882;2024-03-23T08:59:34;16.70;;;15.60;;
26038;SDS011;13815;52.374;4.882;2024-03-23T09:01:59;14.73;;;13.82;;
26038;SDS011;13815;52.374;4.882;2024-03-23T09:04:25;16.10;;;15.00;;
26038;SDS011;13815;52.374;4.882;2024-03-23T09:06:50;17.45;;;16.15;;
26038;SDS011;13815;52.374;4.882;2024-03-23T09:09:16;17.90;;;16.50;;
26038;SDS011;13815;52.374;4.882;2024-03-23T09:11:41;16.30;;;15.20;;
26038;SDS011;13815;52.374;4.882;2024-03-23T09:14:07;15.48;;;14.52;;
26038;SDS011;13815;52.374;4.882;2024-03-23T09:16:35;16.10;;;15.10;;
26038;SDS011;13815;52.374;4.882;2024-03-23T09:19:00;14.70;;;13.90;;
26038;SDS011;13815;52.374;4.882;2024-03-23T09:21:26;13.68;;;13.07;;
26038;SDS011;13815;52.374;4.882;2024-03-23T09:23:51;13.90;;;13.23;;
26038;SDS011;13815;52.374;4.882;2024-03-23T09:26:16;12.93;;;12.32;;
26038;SDS011;13815;52.374;4.882;2024-03-23T09:28:41;11.70;;;11.20;;
26038;SDS011;13815;52.374;4.882;2024-03-23T09:31:08;10.25;;;9.85;;
26038;SDS011;13815;52.374;4.882;2024-03-23T09:33:34;11.90;;;11.40;;
26038;SDS011;13815;52.374;4.882;2024-03-23T09:36:06;12.52;;;12.00;;
26038;SDS011;13815;52.374;4.882;2024-03-23T09:38:33;14.50;;;13.70;;
26038;SDS011;13815;52.374;4.882;2024-03-23T09:40:58;17.00;;;15.63;;
26038;SDS011;13815;52.374;4.882;2024-03-23T09:43:27;20.73;;;18.83;;
26038;SDS011;13815;52.374;4.882;2024-03-23T09:45:53;22.73;;;20.52;;
26038;SDS011;13815;52.374;4.882;2024-03-23T09:48:18;22.92;;;20.63;;
26038;SDS011;13815;52.374;4.882;2024-03-23T09:50:44;23.20;;;20.80;;
26038;SDS011;13815;52.374;4.882;2024-03-23T09:53:11;22.27;;;20.17;;
26038;SDS011;13815;52.374;4.882;2024-03-23T09:55:38;23.33;;;21.10;;
26038;SDS011;13815;52.374;4.882;2024-03-23T09:58:06;24.17;;;21.77;;
26038;SDS011;13815;52.374;4.882;2024-03-23T10:00:32;23.70;;;21.23;;
26038;SDS011;13815;52.374;4.882;2024-03-23T10:02:58;25.10;;;22.27;;
26038;SDS011;13815;52.374;4.882;2024-03-23T10:05:27;26.48;;;22.58;;
26038;SDS011;13815;52.374;4.882;2024-03-23T10:07:53;23.30;;;20.90;;
26038;SDS011;13815;52.374;4.882;2024-03-23T10:10:18;22.95;;;20.45;;
26038;SDS011;13815;52.374;4.882;2024-03-23T10:12:47;30.00;;;22.95;;
26038;SDS011;13815;52.374;4.882;2024-03-23T10:15:19;31.80;;;24.63;;
26038;SDS011;13815;52.374;4.882;2024-03-23T10:17:45;32.55;;;24.85;;
26038;SDS011;13815;52.374;4.882;2024-03-23T10:20:11;32.75;;;24.65;;
26038;SDS011;13815;52.374;4.882;2024-03-23T10:22:38;30.95;;;24.20;;
26038;SDS011;13815;52.374;4.882;2024-03-23T10:25:08;29.77;;;23.73;;
26038;SDS011;13815;52.374;4.882;2024-03-23T10:27:34;28.75;;;22.88;;
26038;SDS011;13815;52.374;4.882;2024-03-23T10:30:07;28.00;;;23.15;;
26038;SDS011;13815;52.374;4.882;2024-03-23T10:32:33;23.80;;;20.92;;
26038;SDS011;13815;52.374;4.882;2024-03-23T10:37:49;20.27;;;18.38;;
26038;SDS011;13815;52.374;4.882;2024-03-23T10:40:16;19.73;;;17.92;;
26038;SDS011;13815;52.374;4.882;2024-03-23T10:42:43;21.08;;;18.98;;
26038;SDS011;13815;52.374;4.882;2024-03-23T10:45:09;22.63;;;20.25;;
26038;SDS011;13815;52.374;4.882;2024-03-23T10:47:35;23.27;;;20.77;;
26038;SDS011;13815;52.374;4.882;2024-03-23T10:50:05;23.42;;;20.83;;
26038;SDS011;13815;52.374;4.882;2024-03-23T10:52:34;26.50;;;22.20;;
26038;SDS011;13815;52.374;4.882;2024-03-23T10:55:04;28.75;;;23.70;;
26038;SDS011;13815;52.374;4.882;2024-03-23T10:57:34;28.40;;;23.25;;
26038;SDS011;13815;52.374;4.882;2024-03-23T11:00:04;29.00;;;22.83;;
26038;SDS011;13815;52.374;4.882;2024-03-23T11:02:30;27.73;;;22.20;;
26038;SDS011;13815;52.374;4.882;2024-03-23T11:04:57;31.67;;;23.67;;
26038;SDS011;13815;52.374;4.882;2024-03-23T11:09:49;32.03;;;23.75;;
26038;SDS011;13815;52.374;4.882;2024-03-23T11:14:51;32.38;;;23.73;;
26038;SDS011;13815;52.374;4.882;2024-03-23T11:17:20;34.08;;;25.75;;
26038;SDS011;13815;52.374;4.882;2024-03-23T11:25:24;34.83;;;24.65;;
26038;SDS011;13815;52.374;4.882;2024-03-23T11:27:52;36.00;;;24.95;;
26038;SDS011;13815;52.374;4.882;2024-03-23T11:30:19;36.30;;;26.05;;
26038;SDS011;13815;52.374;4.882;2024-03-23T11:32:47;36.13;;;26.45;;
26038;SDS011;13815;52.374;4.882;2024-03-23T11:40:30;38.25;;;25.40;;
26038;SDS011;13815;52.374;4.882;2024-03-23T11:42:59;41.58;;;30.73;;
26038;SDS011;13815;52.374;4.882;2024-03-23T11:45:31;40.92;;;27.70;;
26038;SDS011;13815;52.374;4.882;2024-03-23T11:48:06;40.45;;;27.55;;
26038;SDS011;13815;52.374;4.882;2024-03-23T11:50:33;37.80;;;26.00;;
26038;SDS011;13815;52.374;4.882;2024-03-23T11:53:08;36.25;;;24.77;;
26038;SDS011;13815;52.374;4.882;2024-03-23T11:58:21;36.63;;;25.00;;
26038;SDS011;13815;52.374;4.882;2024-03-23T12:00:57;38.22;;;25.05;;
26038;SDS011;13815;52.374;4.882;2024-03-23T12:03:27;38.03;;;25.85;;
26038;SDS011;13815;52.374;4.882;2024-03-23T12:06:00;35.72;;;26.02;;
26038;SDS011;13815;52.374;4.882;2024-03-23T12:08:30;33.38;;;23.83;;
26038;SDS011;13815;52.374;4.882;2024-03-23T12:11:11;35.40;;;25.70;;
26038;SDS011;13815;52.374;4.882;2024-03-23T12:13:41;32.63;;;24.83;;
26038;SDS011;13815;52.374;4.882;2024-03-23T12:16:14;28.70;;;23.17;;
26038;SDS011;13815;52.374;4.882;2024-03-23T12:18:46;28.40;;;22.98;;
26038;SDS011;13815;52.374;4.882;2024-03-23T12:21:12;27.42;;;22.50;;
26038;SDS011;13815;52.374;4.882;2024-03-23T12:23:41;25.95;;;22.70;;
26038;SDS011;13815;52.374;4.882;2024-03-23T12:26:11;23.65;;;21.15;;
26038;SDS011;13815;52.374;4.882;2024-03-23T12:28:37;23.75;;;21.25;;
26038;SDS011;13815;52.374;4.882;2024-03-23T12:31:02;23.65;;;21.25;;
26038;SDS011;13815;52.374;4.882;2024-03-23T12:33:28;23.05;;;20.75;;
26038;SDS011;13815;52.374;4.882;2024-03-23T12:35:53;21.95;;;19.95;;
26038;SDS011;13815;52.374;4.882;2024-03-23T12:38:18;21.90;;;19.90;;
26038;SDS011;13815;52.374;4.882;2024-03-23T12:40:47;20.58;;;18.77;;
26038;SDS011;13815;52.374;4.882;2024-03-23T12:43:16;22.02;;;20.02;;
26038;SDS011;13815;52.374;4.882;2024-03-23T12:45:48;24.25;;;21.85;;
26038;SDS011;13815;52.374;4.882;2024-03-23T12:48:14;26.65;;;23.25;;
26038;SDS011;13815;52.374;4.882;2024-03-23T12:50:40;32.90;;;24.77;;
26038;SDS011;13815;52.374;4.882;2024-03-23T12:53:05;35.70;;;25.48;;
26038;SDS011;13815;52.374;4.882;2024-03-23T12:55:30;37.17;;;26.38;;
26038;SDS011;13815;52.374;4.882;2024-03-23T12:57:56;35.10;;;25.00;;
26038;SDS011;13815;52.374;4.882;2024-03-23T13:00:21;34.75;;;25.70;;
26038;SDS011;13815;52.374;4.882;2024-03-23T13:02:47;33.92;;;25.73;;
26038;SDS011;13815;52.374;4.882;2024-03-23T13:05:13;35.88;;;26.50;;
26038;SDS011;13815;52.374;4.882;2024-03-23T13:07:38;36.92;;;26.88;;
26038;SDS011;13815;52.374;4.882;2024-03-23T13:10:04;36.85;;;28.60;;
26038;SDS011;13815;52.374;4.882;2024-03-23T13:12:30;37.13;;;28.48;;
26038;SDS011;13815;52.374;4.882;2024-03-23T13:14:56;38.00;;;29.33;;
26038;SDS011;13815;52.374;4.882;2024-03-23T13:17:21;36.80;;;27.98;;
26038;SDS011;13815;52.374;4.882;2024-03-23T13:19:47;35.85;;;27.27;;
26038;SDS011;13815;52.374;4.882;2024-03-23T13:22:12;35.88;;;28.67;;
26038;SDS011;13815;52.374;4.882;2024-03-23T13:24:37;33.58;;;26.80;;
26038;SDS011;13815;52.374;4.882;2024-03-23T13:27:03;33.30;;;25.85;;
26038;SDS011;13815;52.374;4.882;2024-03-23T13:29:30;36.63;;;28.98;;
26038;SDS011;13815;52.374;4.882;2024-03-23T13:31:55;35.47;;;27.13;;
26038;SDS011;13815;52.374;4.882;2024-03-23T13:34:27;34.70;;;27.17;;
26038;SDS011;13815;52.374;4.882;2024-03-23T13:36:54;36.40;;;27.45;;
26038;SDS011;13815;52.374;4.882;2024-03-23T13:39:19;36.17;;;26.67;;
26038;SDS011;13815;52.374;4.882;2024-03-23T13:41:45;39.83;;;29.25;;
26038;SDS011;13815;52.374;4.882;2024-03-23T13:44:11;38.25;;;27.05;;
26038;SDS011;13815;52.374;4.882;2024-03-23T13:46:37;41.40;;;29.30;;
26038;SDS011;13815;52.374;4.882;2024-03-23T13:49:04;42.30;;;30.15;;
26038;SDS011;13815;52.374;4.882;2024-03-23T13:51:29;41.05;;;29.80;;
26038;SDS011;13815;52.374;4.882;2024-03-23T13:53:55;43.35;;;31.20;;
26038;SDS011;13815;52.374;4.882;2024-03-23T13:56:21;39.83;;;29.23;;
26038;SDS011;13815;52.374;4.882;2024-03-23T13:58:50;42.60;;;30.10;;
26038;SDS011;13815;52.374;4.882;2024-03-23T14:01:16;43.20;;;31.38;;
26038;SDS011;13815;52.374;4.882;2024-03-23T14:03:42;45.15;;;31.10;;
26038;SDS011;13815;52.374;4.882;2024-03-23T14:06:09;46.25;;;30.33;;
26038;SDS011;13815;52.374;4.882;2024-03-23T14:08:35;47.00;;;32.28;;
26038;SDS011;13815;52.374;4.882;2024-03-23T14:11:04;43.65;;;29.35;;
26038;SDS011;13815;52.374;4.882;2024-03-23T14:13:30;44.03;;;30.48;;
26038;SDS011;13815;52.374;4.882;2024-03-23T14:15:58;43.90;;;30.10;;
26038;SDS011;13815;52.374;4.882;2024-03-23T14:18:23;44.90;;;30.85;;
26038;SDS011;13815;52.374;4.882;2024-03-23T14:20:49;45.58;;;31.90;;
26038;SDS011;13815;52.374;4.882;2024-03-23T14:23:15;43.70;;;30.88;;
26038;SDS011;13815;52.374;4.882;2024-03-23T14:25:47;46.08;;;32.80;;
26038;SDS011;13815;52.374;4.882;2024-03-23T14:28:12;47.47;;;33.42;;
26038;SDS011;13815;52.374;4.882;2024-03-23T14:30:41;47.13;;;32.58;;
26038;SDS011;13815;52.374;4.882;2024-03-23T14:33:06;46.65;;;31.05;;
26038;SDS011;13815;52.374;4.882;2024-03-23T14:35:32;44.85;;;31.05;;
26038;SDS011;13815;52.374;4.882;2024-03-23T14:37:58;47.95;;;31.08;;
26038;SDS011;13815;52.374;4.882;2024-03-23T14:40:26;46.53;;;29.73;;
26038;SDS011;13815;52.374;4.882;2024-03-23T14:42:53;48.03;;;31.52;;
26038;SDS011;13815;52.374;4.882;2024-03-23T14:45:21;46.47;;;29.92;;
26038;SDS011;13815;52.374;4.882;2024-03-23T14:47:49;43.70;;;28.08;;
26038;SDS011;13815;52.374;4.882;2024-03-23T14:50:24;46.28;;;30.77;;
26038;SDS011;13815;52.374;4.882;2024-03-23T14:52:50;47.25;;;30.52;;
26038;SDS011;13815;52.374;4.882;2024-03-23T14:55:17;49.40;;;33.30;;
26038;SDS011;13815;52.374;4.882;2024-03-23T14:57:45;45.95;;;30.98;;
26038;SDS011;13815;52.374;4.882;2024-03-23T15:00:11;41.60;;;26.95;;
26038;SDS011;13815;52.374;4.882;2024-03-23T15:02:37;45.05;;;28.95;;
26038;SDS011;13815;52.374;4.882;2024-03-23T15:05:06;46.63;;;31.40;;
26038;SDS011;13815;52.374;4.882;2024-03-23T15:07:35;45.05;;;30.02;;
26038;SDS011;13815;52.374;4.882;2024-03-23T15:10:04;43.22;;;28.75;;
26038;SDS011;13815;52.374;4.882;2024-03-23T15:12:30;43.05;;;28.65;;
26038;SDS011;13815;52.374;4.882;2024-03-23T15:14:58;42.78;;;28.38;;
26038;SDS011;13815;52.374;4.882;2024-03-23T15:17:26;42.65;;;28.15;;
26038;SDS011;13815;52.374;4.882;2024-03-23T15:19:52;44.33;;;28.63;;
26038;SDS011;13815;52.374;4.882;2024-03-23T15:22:18;44.78;;;28.65;;
26038;SDS011;13815;52.374;4.882;2024-03-23T15:24:54;45.97;;;29.95;;
26038;SDS011;13815;52.374;4.882;2024-03-23T15:27:20;48.38;;;31.27;;
26038;SDS011;13815;52.374;4.882;2024-03-23T15:29:46;47.70;;;30.83;;
26038;SDS011;13815;52.374;4.882;2024-03-23T15:32:11;47.10;;;29.50;;
26038;SDS011;13815;52.374;4.882;2024-03-23T15:34:47;44.92;;;28.27;;
26038;SDS011;13815;52.374;4.882;2024-03-23T15:37:12;45.97;;;29.08;;
26038;SDS011;13815;52.374;4.882;2024-03-23T15:39:40;44.78;;;28.80;;
26038;SDS011;13815;52.374;4.882;2024-03-23T15:42:12;45.40;;;28.60;;
26038;SDS011;13815;52.374;4.882;2024-03-23T15:44:38;43.90;;;27.55;;
26038;SDS011;13815;52.374;4.882;2024-03-23T15:47:06;46.65;;;28.88;;
26038;SDS011;13815;52.374;4.882;2024-03-23T15:49:33;47.78;;;32.08;;